Time;durP1;ratioP1;P1;durP2;ratioP2;P2;SDS_P1;SDS_P2;PMS_P1;PMS_P2;Temp;Humidity;BMP_temperature;BMP_pressure;BME280_temperature;BME280_humidity;BME280_pressure;Samples;Min_cycle;Max_cycle;Signal;HPM_P1;HPM_P2
2022/09/25 00:00:32;;;;;;;;;;;;;;;11.63;99.14;101564.81;5094986;28;19967;-35
2022/09/25 00:02:57;;;;;;;;;;;;;;;11.64;99.16;101563.75;5095077;28;19916;-35
2022/09/25 00:05:22;;;;;;;;;;;;;;;11.65;99.30;101559.16;5094522;28;19920;-35
2022/09/25 00:07:48;;;;;;;;;;;;;;;11.66;98.89;101566.22;5094794;28;19916;-35
2022/09/25 00:10:13;;;;;;;;;;;;;;;11.66;99.16;101572.47;5094352;28;19960;-35
2022/09/25 00:12:38;;;;;;;;;;;;;;;11.66;99.15;101571.66;5094654;28;19916;-35
2022/09/25 00:15:04;;;;;;;;;;;;;;;11.66;99.06;101577.91;5094616;28;19916;-35
2022/09/25 00:17:29;;;;;;;;;;;;;;;11.65;99.01;101578.97;5095053;28;20288;-35
2022/09/25 00:19:55;;;;;;;;;;;;;;;11.63;98.98;101578.34;5095202;28;19917;-35
2022/09/25 00:22:21;;;;;;;;;;;;;;;11.63;99.05;101581.06;5095013;28;19970;-35
2022/09/25 00:24:47;;;;;;;;;;;;;;;11.62;98.92;101582.13;5094410;28;20334;-35
2022/09/25 00:27:12;;;;;;;;;;;;;;;11.62;99.13;101578.59;5095194;28;19946;-35
2022/09/25 00:29:38;;;;;;;;;;;;;;;11.59;99.05;101571.72;5094330;28;19922;-35
2022/09/25 00:32:05;;;;;;;;;;;;;;;11.58;99.00;101565.47;5094536;28;19924;-35
2022/09/25 00:34:31;;;;;;;;;;;;;;;11.58;99.11;101583.59;5094202;28;19923;-35
2022/09/25 00:36:56;;;;;;;;;;;;;;;11.54;99.25;101585.91;5094509;28;19916;-35
2022/09/25 00:39:21;;;;;;;;;;;;;;;11.54;98.89;101574.25;5093901;28;19965;-39
2022/09/25 00:41:46;;;;;;;;;;;;;;;11.52;99.11;101576.38;5094152;28;20271;-35
2022/09/25 00:44:30;;;;;;;;;;;;;;;11.51;99.06;101580.94;5094571;28;20268;-35
2022/09/25 00:46:56;;;;;;;;;;;;;;;11.50;98.71;101579.28;5094698;28;20007;-35
2022/09/25 00:49:23;;;;;;;;;;;;;;;11.51;98.89;101580.94;5094885;28;19974;-35
2022/09/25 00:52:21;;;;;;;;;;;;;;;11.49;99.41;101585.75;5093661;28;20300;-35
2022/09/25 00:54:49;;;;;;;;;;;;;;;11.46;99.32;101577.22;5031562;28;19917;-35
2022/09/25 00:57:17;;;;;;;;;;;;;;;11.42;99.48;101579.56;5031716;28;20336;-35
2022/09/25 00:59:45;;;;;;;;;;;;;;;11.41;99.27;101586.00;5031031;28;20015;-35
2022/09/25 01:02:15;;;;;;;;;;;;;;;11.40;98.94;101583.53;5031682;28;19933;-35
2022/09/25 01:04:44;;;;;;;;;;;;;;;11.40;99.14;101581.63;5014934;28;20364;-35
2022/09/25 01:07:10;;;;;;;;;;;;;;;11.41;98.96;101586.00;5031439;28;19917;-35
2022/09/25 01:09:35;;;;;;;;;;;;;;;11.41;99.16;101585.16;5031469;28;19928;-35
2022/09/25 01:12:01;;;;;;;;;;;;;;;11.41;98.92;101577.88;5031743;28;20400;-35
2022/09/25 01:14:26;;;;;;;;;;;;;;;11.41;98.67;101586.00;5031223;28;19928;-35
2022/09/25 01:16:58;;;;;;;;;;;;;;;11.37;98.89;101590.22;5031270;28;20386;-35
2022/09/25 01:19:23;;;;;;;;;;;;;;;11.35;99.09;101592.28;5031804;28;19921;-35
2022/09/25 01:21:48;;;;;;;;;;;;;;;11.31;98.79;101586.47;5030998;28;19917;-35
2022/09/25 01:24:40;;;;;;;;;;;;;;;11.29;99.23;101591.28;5031228;28;19964;-35
2022/09/25 01:27:12;;;;;;;;;;;;;;;11.25;98.90;101591.94;5029192;28;19917;-35
2022/09/25 01:29:48;;;;;;;;;;;;;;;11.22;98.99;101587.78;5044456;28;19939;-35
2022/09/25 01:32:22;;;;;;;;;;;;;;;11.21;99.01;101579.88;5093846;28;19927;-35
2022/09/25 01:34:50;;;;;;;;;;;;;;;11.16;99.23;101595.94;5093462;28;19922;-35
2022/09/25 01:37:23;;;;;;;;;;;;;;;11.13;98.77;101593.69;5093728;28;20352;-35
2022/09/25 01:40:04;;;;;;;;;;;;;;;11.11;98.67;101609.31;5093624;28;20304;-35
2022/09/25 01:42:35;;;;;;;;;;;;;;;11.05;98.86;101597.47;5094241;28;20276;-35
2022/09/25 01:45:03;;;;;;;;;;;;;;;11.08;99.12;101599.75;5094259;28;19916;-35
2022/09/25 01:47:30;;;;;;;;;;;;;;;11.04;98.82;101596.63;5093645;28;20317;-35
2022/09/25 01:50:01;;;;;;;;;;;;;;;11.02;98.90;101598.72;5076202;28;19923;-35
2022/09/25 01:52:41;;;;;;;;;;;;;;;11.00;98.77;101600.00;5093930;28;19923;-35
2022/09/25 01:55:09;;;;;;;;;;;;;;;10.96;98.82;101601.47;5093291;28;19916;-35
2022/09/25 01:58:01;;;;;;;;;;;;;;;10.91;98.80;101607.50;5093873;28;19924;-35
2022/09/25 02:00:26;;;;;;;;;;;;;;;10.85;98.62;101604.84;5089527;28;19927;-35
2022/09/25 02:02:55;;;;;;;;;;;;;;;10.79;98.75;101598.41;5094019;28;20011;-35
2022/09/25 02:05:27;;;;;;;;;;;;;;;10.75;99.01;101602.59;5092861;28;20019;-35
2022/09/25 02:07:56;;;;;;;;;;;;;;;10.71;99.01;101595.94;5093301;28;19916;-35
2022/09/25 02:10:24;;;;;;;;;;;;;;;10.68;99.16;101599.88;5095648;28;19966;-35
2022/09/25 02:12:52;;;;;;;;;;;;;;;10.65;99.20;101597.63;5097258;28;19922;-35
2022/09/25 02:15:22;;;;;;;;;;;;;;;10.63;99.04;101596.16;5097166;28;19920;-35
2022/09/25 02:20:45;;;;;;;;;;;;;;;10.56;99.20;101586.22;5097014;28;19923;-35
2022/09/25 02:23:17;;;;;;;;;;;;;;;10.53;98.96;101594.72;5096871;28;19959;-35
2022/09/25 02:25:55;;;;;;;;;;;;;;;10.53;99.10;101588.50;5096636;28;19927;-35
2022/09/25 02:28:21;;;;;;;;;;;;;;;10.50;98.94;101600.59;5096869;28;19939;-35
2022/09/25 02:30:48;;;;;;;;;;;;;;;10.47;98.85;101594.75;5097198;28;19916;-35
2022/09/25 02:33:13;;;;;;;;;;;;;;;10.46;98.64;101603.94;5097065;28;20288;-35
2022/09/25 02:35:38;;;;;;;;;;;;;;;10.42;98.66;101603.50;5096328;28;19916;-35
2022/09/25 02:38:04;;;;;;;;;;;;;;;10.41;98.65;101601.03;5096251;28;19970;-35
2022/09/25 02:40:39;;;;;;;;;;;;;;;10.39;98.66;101603.91;5096109;28;19916;-35
2022/09/25 02:43:04;;;;;;;;;;;;;;;10.36;98.76;101604.38;5097049;28;19920;-35
2022/09/25 02:45:54;;;;;;;;;;;;;;;10.32;98.86;101598.53;5096868;28;19923;-35
2022/09/25 02:48:30;;;;;;;;;;;;;;;10.30;99.07;101600.63;5097076;28;19999;-35
2022/09/25 02:51:16;;;;;;;;;;;;;;;10.29;98.60;101598.13;5096285;28;19923;-35
2022/09/25 02:53:44;;;;;;;;;;;;;;;10.24;98.43;101595.22;5096223;28;19989;-35
2022/09/25 02:56:12;;;;;;;;;;;;;;;10.21;98.87;101584.81;5096033;28;20276;-35
2022/09/25 02:58:43;;;;;;;;;;;;;;;10.16;98.45;101581.91;5096169;28;19920;-35
2022/09/25 03:01:11;;;;;;;;;;;;;;;10.09;98.41;101581.91;5095736;28;19923;-35
2022/09/25 03:03:37;;;;;;;;;;;;;;;10.03;98.75;101580.88;5095794;28;19923;-35
2022/09/25 03:06:04;;;;;;;;;;;;;;;10.01;98.86;101579.44;5096040;28;20259;-35
2022/09/25 03:08:38;;;;;;;;;;;;;;;9.99;98.71;101585.03;5096269;28;19965;-35
2022/09/25 03:11:07;;;;;;;;;;;;;;;9.99;98.80;101584.19;5096134;28;19943;-35
2022/09/25 03:13:33;;;;;;;;;;;;;;;9.97;98.73;101589.81;5095867;28;20015;-36
2022/09/25 03:16:01;;;;;;;;;;;;;;;9.95;98.63;101583.78;5095867;28;19963;-36
2022/09/25 03:18:27;;;;;;;;;;;;;;;9.93;98.77;101588.56;5096175;28;19923;-35
2022/09/25 03:20:52;;;;;;;;;;;;;;;9.92;98.68;101588.78;5095563;28;19920;-35
2022/09/25 03:23:18;;;;;;;;;;;;;;;9.91;98.76;101584.44;5096530;28;19916;-35
2022/09/25 03:25:43;;;;;;;;;;;;;;;9.90;98.74;101594.38;5096229;28;19920;-35
2022/09/25 03:28:09;;;;;;;;;;;;;;;9.88;98.79;101591.06;5095727;28;20295;-35
2022/09/25 03:30:37;;;;;;;;;;;;;;;9.88;98.78;101596.47;5095520;28;19916;-35
2022/09/25 03:33:02;;;;;;;;;;;;;;;9.89;98.95;101586.50;5096286;28;19917;-35
2022/09/25 03:35:27;;;;;;;;;;;;;;;9.88;98.92;101590.25;5095489;28;19963;-35
2022/09/25 03:37:52;;;;;;;;;;;;;;;9.85;98.88;101586.06;5095671;28;20018;-35
2022/09/25 03:40:17;;;;;;;;;;;;;;;9.82;99.05;101586.50;5095239;28;20007;-35
2022/09/25 03:42:43;;;;;;;;;;;;;;;9.82;98.88;101591.09;5077356;28;19922;-35
2022/09/25 03:45:10;;;;;;;;;;;;;;;9.78;98.84;101586.09;5095221;28;20402;-35
2022/09/25 03:47:35;;;;;;;;;;;;;;;9.77;98.79;101587.13;5095449;28;20425;-35
2022/09/25 03:50:00;;;;;;;;;;;;;;;9.76;98.99;101590.00;5095159;28;19916;-35
2022/09/25 03:52:26;;;;;;;;;;;;;;;9.73;99.12;101593.16;5094893;28;19939;-35
2022/09/25 03:54:51;;;;;;;;;;;;;;;9.72;99.17;101586.09;5095079;28;19916;-35
2022/09/25 03:57:16;;;;;;;;;;;;;;;9.74;99.19;101594.81;5094815;28;20380;-35
2022/09/25 03:59:41;;;;;;;;;;;;;;;9.74;98.92;101586.69;5094965;28;19920;-35
2022/09/25 04:02:07;;;;;;;;;;;;;;;9.74;98.80;101590.22;5094648;28;19917;-35
2022/09/25 04:04:32;;;;;;;;;;;;;;;9.74;98.79;101586.69;5094880;28;19924;-35
2022/09/25 04:06:57;;;;;;;;;;;;;;;9.72;98.89;101596.91;5095679;28;20298;-35
2022/09/25 04:09:23;;;;;;;;;;;;;;;9.70;98.84;101591.69;5094562;28;19916;-35
2022/09/25 04:11:48;;;;;;;;;;;;;;;9.69;99.44;101590.03;5094537;28;20380;-35
2022/09/25 04:14:13;;;;;;;;;;;;;;;9.66;99.18;101589.59;5094652;28;19920;-35
2022/09/25 04:16:39;;;;;;;;;;;;;;;9.63;98.99;101581.94;5094701;28;19916;-35
2022/09/25 04:19:04;;;;;;;;;;;;;;;9.60;98.79;101582.31;5094591;28;19916;-35
2022/09/25 04:21:29;;;;;;;;;;;;;;;9.59;99.21;101580.66;5076794;28;20263;-35
2022/09/25 04:26:38;;;;;;;;;;;;;;;9.50;98.75;101583.56;5094528;28;20274;-35
2022/09/25 04:29:04;;;;;;;;;;;;;;;9.47;99.24;101577.75;5094875;28;19920;-35
2022/09/25 04:31:30;;;;;;;;;;;;;;;9.44;99.48;101579.00;5094345;28;19920;-35
2022/09/25 04:33:55;;;;;;;;;;;;;;;9.41;98.83;101581.25;5094890;28;19916;-35
2022/09/25 04:36:20;;;;;;;;;;;;;;;9.37;99.32;101582.69;5094831;28;19999;-35
2022/09/25 04:38:46;;;;;;;;;;;;;;;9.34;99.27;101578.56;5094797;28;19955;-35
2022/09/25 04:41:12;;;;;;;;;;;;;;;9.34;98.83;101580.44;5093877;28;19916;-35
2022/09/25 04:43:39;;;;;;;;;;;;;;;9.31;98.88;101581.66;5094156;28;19916;-35
2022/09/25 04:46:05;;;;;;;;;;;;;;;9.29;99.54;101586.44;5093900;28;20436;-35
2022/09/25 04:48:31;;;;;;;;;;;;;;;9.27;99.41;101588.50;5094452;28;19916;-35
2022/09/25 04:50:57;;;;;;;;;;;;;;;9.25;99.37;101585.19;5093712;28;19923;-36
2022/09/25 04:53:22;;;;;;;;;;;;;;;9.21;99.58;101583.91;5094797;28;19970;-35
2022/09/25 04:55:48;;;;;;;;;;;;;;;9.17;99.08;101585.38;5093982;28;20013;-35
2022/09/25 04:58:13;;;;;;;;;;;;;;;9.15;99.14;101580.19;5094319;28;19927;-35
2022/09/25 05:00:39;;;;;;;;;;;;;;;9.15;99.46;101573.94;5094143;28;19959;-35
2022/09/25 05:03:06;;;;;;;;;;;;;;;9.15;99.24;101573.94;5074948;28;20386;-35
2022/09/25 05:05:32;;;;;;;;;;;;;;;9.14;99.53;101567.72;5093380;28;19966;-35
2022/09/25 05:07:58;;;;;;;;;;;;;;;9.14;99.63;101567.72;5094457;28;20370;-35
2022/09/25 05:10:26;;;;;;;;;;;;;;;9.11;99.54;101565.44;5093898;28;19924;-35
2022/09/25 05:12:59;;;;;;;;;;;;;;;9.08;98.98;101562.28;5076261;28;20356;-36
2022/09/25 05:15:25;;;;;;;;;;;;;;;9.05;99.76;101565.41;5094053;28;19963;-35
2022/09/25 05:17:58;;;;;;;;;;;;;;;8.99;99.49;101567.06;5093885;28;20279;-35
2022/09/25 05:20:23;;;;;;;;;;;;;;;8.94;99.24;101573.06;5094354;28;20379;-35
2022/09/25 05:22:48;;;;;;;;;;;;;;;8.91;99.83;101569.94;5093530;28;19963;-35
2022/09/25 05:25:13;;;;;;;;;;;;;;;8.88;99.60;101573.03;5093505;28;19959;-35
2022/09/25 05:27:39;;;;;;;;;;;;;;;8.87;99.41;101571.38;5093551;28;19934;-35
2022/09/25 05:30:04;;;;;;;;;;;;;;;8.87;99.23;101566.81;5075562;28;19923;-35
2022/09/25 05:32:29;;;;;;;;;;;;;;;8.89;99.69;101572.84;5093242;28;20381;-35
2022/09/25 05:34:55;;;;;;;;;;;;;;;8.91;100.00;101578.03;5093443;28;19939;-35
2022/09/25 05:37:20;;;;;;;;;;;;;;;8.88;99.88;101562.22;5093923;28;19916;-35
2022/09/25 05:39:45;;;;;;;;;;;;;;;8.89;99.65;101567.44;5093503;28;19916;-35
2022/09/25 05:42:11;;;;;;;;;;;;;;;8.90;99.83;101566.41;5094035;28;19916;-35
2022/09/25 05:44:38;;;;;;;;;;;;;;;8.90;100.00;101569.09;5094193;28;20010;-35
2022/09/25 05:47:05;;;;;;;;;;;;;;;8.92;99.98;101576.97;5097518;28;19920;-35
2022/09/25 05:49:30;;;;;;;;;;;;;;;8.92;100.00;101574.28;5097350;28;19916;-35
2022/09/25 05:51:55;;;;;;;;;;;;;;;8.90;99.96;101569.09;5097905;28;19923;-35
2022/09/25 05:54:20;;;;;;;;;;;;;;;8.89;100.00;101580.94;5097367;28;19920;-35
2022/09/25 05:56:45;;;;;;;;;;;;;;;8.87;99.64;101577.59;5079875;28;19916;-35
2022/09/25 05:59:11;;;;;;;;;;;;;;;8.87;99.27;101588.38;5097451;28;20306;-35
2022/09/25 06:01:36;;;;;;;;;;;;;;;8.87;100.00;101582.16;5097246;28;19920;-35
2022/09/25 06:04:01;;;;;;;;;;;;;;;8.87;99.98;101577.59;5097115;28;20283;-35
2022/09/25 06:06:28;;;;;;;;;;;;;;;8.90;100.00;101579.91;5097422;28;20011;-34
2022/09/25 06:08:53;;;;;;;;;;;;;;;8.92;99.68;101585.06;5096784;28;19920;-35
2022/09/25 06:11:18;;;;;;;;;;;;;;;8.93;99.51;101587.59;5097505;28;20027;-35
2022/09/25 06:13:45;;;;;;;;;;;;;;;8.98;100.00;101579.72;5097488;28;19916;-34
2022/09/25 06:16:18;;;;;;;;;;;;;;;9.03;100.00;101577.25;5097343;28;19923;-35
2022/09/25 06:18:43;;;;;;;;;;;;;;;9.17;100.00;101588.06;5097631;28;20019;-35
2022/09/25 06:21:08;;;;;;;;;;;;;;;9.20;100.00;101587.66;5097291;28;20021;-35
2022/09/25 06:23:34;;;;;;;;;;;;;;;9.23;100.00;101584.56;5097049;28;19923;-34
2022/09/25 06:26:03;;;;;;;;;;;;;;;9.29;100.00;101587.28;5096756;28;19916;-34
2022/09/25 06:28:29;;;;;;;;;;;;;;;9.33;100.00;101592.28;5096724;28;19916;-35
2022/09/25 06:30:55;;;;;;;;;;;;;;;9.35;100.00;101587.50;5096505;28;19916;-35
2022/09/25 06:33:20;;;;;;;;;;;;;;;9.37;100.00;101591.66;5096286;28;19917;-35
2022/09/25 06:35:46;;;;;;;;;;;;;;;9.39;100.00;101592.28;5097209;28;19951;-35
2022/09/25 06:38:12;;;;;;;;;;;;;;;9.41;100.00;101584.78;5097043;28;19923;-35
2022/09/25 06:40:39;;;;;;;;;;;;;;;9.47;100.00;101588.56;5096358;28;19916;-35
2022/09/25 06:43:04;;;;;;;;;;;;;;;9.45;100.00;101594.16;5096476;28;19916;-35
2022/09/25 06:45:32;;;;;;;;;;;;;;;9.46;100.00;101589.56;5096413;28;20003;-35
2022/09/25 06:48:00;;;;;;;;;;;;;;;9.46;100.00;101585.00;5096305;28;20307;-35
2022/09/25 06:50:30;;;;;;;;;;;;;;;9.51;100.00;101589.78;5096184;28;20018;-35
2022/09/25 06:52:59;;;;;;;;;;;;;;;9.55;100.00;101591.03;5096511;28;19963;-35
2022/09/25 06:55:24;;;;;;;;;;;;;;;9.57;100.00;101594.38;5095692;28;19920;-35
2022/09/25 06:57:49;;;;;;;;;;;;;;;9.54;100.00;101590.22;5095596;28;20385;-35
2022/09/25 07:00:15;;;;;;;;;;;;;;;9.58;100.00;101600.63;5096481;28;19920;-35
2022/09/25 07:05:24;;;;;;;;;;;;;;;9.73;100.00;101602.09;5095873;28;19924;-35
2022/09/25 07:07:49;;;;;;;;;;;;;;;9.80;100.00;101604.78;5077990;28;20344;-35
2022/09/25 07:10:15;;;;;;;;;;;;;;;9.83;100.00;101598.97;5095952;28;19916;-34
2022/09/25 07:12:41;;;;;;;;;;;;;;;9.86;100.00;101609.38;5095844;28;19923;-35
2022/09/25 07:15:06;;;;;;;;;;;;;;;9.91;100.00;101609.56;5095460;28;20411;-35
2022/09/25 07:17:31;;;;;;;;;;;;;;;9.93;100.00;101610.19;5096106;28;20003;-35
2022/09/25 07:19:57;;;;;;;;;;;;;;;10.01;100.00;101607.28;5095296;28;19923;-35
2022/09/25 07:22:22;;;;;;;;;;;;;;;10.10;100.00;101604.34;5096090;28;19920;-35
2022/09/25 07:24:47;;;;;;;;;;;;;;;10.15;100.00;101613.50;5096031;28;20327;-35
2022/09/25 07:27:13;;;;;;;;;;;;;;;10.20;100.00;101612.84;5095537;28;20408;-35
2022/09/25 07:29:38;;;;;;;;;;;;;;;10.26;100.00;101617.47;5095497;28;19916;-35
2022/09/25 07:32:03;;;;;;;;;;;;;;;10.32;100.00;101620.16;5096287;28;19977;-35
2022/09/25 07:34:28;;;;;;;;;;;;;;;10.36;100.00;101614.34;5095135;28;19916;-35
2022/09/25 07:36:54;;;;;;;;;;;;;;;10.44;100.00;101608.69;5095459;28;19923;-35
2022/09/25 07:39:19;;;;;;;;;;;;;;;10.52;100.00;101608.47;5095769;28;20329;-35
2022/09/25 07:41:45;;;;;;;;;;;;;;;10.57;100.00;101612.19;5095162;28;19929;-35
2022/09/25 07:44:10;;;;;;;;;;;;;;;10.63;100.00;101599.69;5095147;28;19916;-35
2022/09/25 07:46:35;;;;;;;;;;;;;;;10.72;100.00;101603.84;5095741;28;19945;-35
2022/09/25 07:49:01;;;;;;;;;;;;;;;10.78;100.00;101602.16;5095189;28;19923;-35
2022/09/25 07:51:26;;;;;;;;;;;;;;;10.85;100.00;101602.97;5095135;28;19916;-35
2022/09/25 07:53:51;;;;;;;;;;;;;;;10.94;100.00;101604.38;5094738;28;19923;-35
2022/09/25 07:56:16;;;;;;;;;;;;;;;11.00;100.00;101608.94;5094681;28;19916;-35
2022/09/25 07:58:42;;;;;;;;;;;;;;;11.05;100.00;101603.69;5108163;28;19947;-35
2022/09/25 08:01:09;;;;;;;;;;;;;;;11.17;100.00;101600.31;5073581;28;20376;-35
2022/09/25 08:03:34;;;;;;;;;;;;;;;11.29;100.00;101601.28;5074688;28;19917;-35
2022/09/25 08:06:01;;;;;;;;;;;;;;;11.41;100.00;101594.13;5074600;28;19917;-35
2022/09/25 08:08:26;;;;;;;;;;;;;;;11.47;100.00;101606.00;5074281;28;20023;-35
2022/09/25 08:10:52;;;;;;;;;;;;;;;11.56;100.00;101597.34;5074355;28;20003;-35
2022/09/25 08:13:19;;;;;;;;;;;;;;;11.67;100.00;101589.59;5075254;28;19939;-35
2022/09/25 08:15:45;;;;;;;;;;;;;;;11.70;100.00;101599.97;5074889;28;20015;-35
2022/09/25 08:18:10;;;;;;;;;;;;;;;11.78;100.00;101600.53;5074097;28;20321;-35
2022/09/25 08:20:38;;;;;;;;;;;;;;;11.89;100.00;101596.31;5073968;28;19966;-35
2022/09/25 08:23:03;;;;;;;;;;;;;;;11.97;100.00;101596.03;5074533;28;19916;-35
2022/09/25 08:25:29;;;;;;;;;;;;;;;12.06;100.00;101593.88;5074929;28;19966;-35
2022/09/25 08:27:54;;;;;;;;;;;;;;;12.14;100.00;101592.75;5074397;28;19917;-35
2022/09/25 08:30:19;;;;;;;;;;;;;;;12.22;100.00;101593.31;5073868;28;19917;-35
2022/09/25 08:32:44;;;;;;;;;;;;;;;12.30;99.57;101584.06;5074131;28;19924;-35
2022/09/25 08:35:09;;;;;;;;;;;;;;;12.40;100.00;101591.69;5074270;28;19967;-35
2022/09/25 08:37:39;;;;;;;;;;;;;;;12.51;99.58;101589.03;5074023;28;20380;-35
2022/09/25 08:40:04;;;;;;;;;;;;;;;12.63;100.00;101589.94;5074624;28;19956;-36
2022/09/25 08:42:32;;;;;;;;;;;;;;;12.73;99.54;101588.56;5074124;28;20465;-35
2022/09/25 08:50:28;;;;;;;;;;;;;;;12.94;99.30;101595.44;5074363;28;19923;-35
2022/09/25 08:53:01;;;;;;;;;;;;;;;13.01;97.81;101597.00;5073775;28;20372;-35
2022/09/25 08:58:25;;;;;;;;;;;;;;;13.23;97.10;101594.66;5075207;28;20057;-35
2022/09/25 09:00:54;;;;;;;;;;;;;;;13.37;97.33;101589.84;5093874;28;19916;-35
2022/09/25 09:03:21;;;;;;;;;;;;;;;13.47;96.96;101595.56;5094450;28;19916;-35
2022/09/25 09:05:49;;;;;;;;;;;;;;;13.52;95.39;101592.97;5093581;28;19923;-35
2022/09/25 09:08:17;;;;;;;;;;;;;;;13.56;95.88;101590.59;5094359;28;19958;-35
2022/09/25 09:10:48;;;;;;;;;;;;;;;13.61;94.21;101586.13;5093382;28;19920;-35
2022/09/25 09:13:17;;;;;;;;;;;;;;;13.72;94.64;101591.84;5094510;28;19927;-35
2022/09/25 09:15:45;;;;;;;;;;;;;;;13.81;94.20;101587.69;5093423;28;19927;-35
2022/09/25 09:18:37;;;;;;;;;;;;;;;13.86;90.65;101583.22;5094463;28;19923;-35
2022/09/25 09:21:15;;;;;;;;;;;;;;;13.98;92.67;101580.50;5090148;28;19920;-35
2022/09/25 09:24:00;;;;;;;;;;;;;;;14.13;90.93;101578.16;5093866;28;19949;-35
2022/09/25 09:26:28;;;;;;;;;;;;;;;14.28;91.25;101577.66;5093585;28;20006;-35
2022/09/25 09:28:59;;;;;;;;;;;;;;;14.42;88.20;101578.25;5094189;28;20271;-35
2022/09/25 09:31:24;;;;;;;;;;;;;;;14.48;86.42;101574.59;5093356;28;19916;-35
2022/09/25 09:33:49;;;;;;;;;;;;;;;14.58;87.27;101574.81;5094096;28;19923;-35
2022/09/25 09:36:41;;;;;;;;;;;;;;;14.70;87.14;101572.09;5093456;28;19924;-35
2022/09/25 09:39:15;;;;;;;;;;;;;;;14.83;87.75;101565.50;5090636;28;19927;-35
2022/09/25 09:41:40;;;;;;;;;;;;;;;14.97;87.56;101566.06;5093648;28;19916;-35
2022/09/25 09:44:12;;;;;;;;;;;;;;;15.09;86.77;101564.97;5093984;28;19969;-35
2022/09/25 09:46:46;;;;;;;;;;;;;;;15.16;83.76;101571.06;5093609;28;19920;-35
2022/09/25 09:49:15;;;;;;;;;;;;;;;15.18;85.74;101566.22;5093265;28;19916;-35
2022/09/25 09:51:50;;;;;;;;;;;;;;;15.14;83.71;101559.59;5093609;28;19927;-35
2022/09/25 09:54:24;;;;;;;;;;;;;;;14.99;85.07;101559.31;5093597;28;20284;-35
2022/09/25 09:56:51;;;;;;;;;;;;;;;14.92;84.43;101562.16;5093543;28;19920;-35
2022/09/25 09:59:19;;;;;;;;;;;;;;;14.94;83.79;101565.50;5093894;28;19924;-35
2022/09/25 10:01:48;;;;;;;;;;;;;;;15.14;85.53;101556.06;5092751;28;20292;-35
2022/09/25 10:04:19;;;;;;;;;;;;;;;15.28;79.58;101556.59;5093236;28;19917;-35
2022/09/25 10:06:47;;;;;;;;;;;;;;;15.41;81.01;101561.72;5093642;28;19916;-35
2022/09/25 10:09:14;;;;;;;;;;;;;;;15.53;80.32;101554.31;5093127;28;20085;-35
2022/09/25 10:11:40;;;;;;;;;;;;;;;15.67;82.73;101552.94;5093007;28;19923;-35
2022/09/25 10:14:10;;;;;;;;;;;;;;;15.88;81.59;101556.00;5093294;28;19972;-35
2022/09/25 10:16:35;;;;;;;;;;;;;;;15.89;79.59;101541.28;5093032;28;19916;-35
2022/09/25 10:19:18;;;;;;;;;;;;;;;15.99;80.86;101546.06;5093356;28;19923;-35
2022/09/25 10:21:46;;;;;;;;;;;;;;;16.16;78.76;101544.13;5093381;28;19933;-35
2022/09/25 10:24:31;;;;;;;;;;;;;;;16.22;78.66;101549.41;5093335;28;19916;-35
2022/09/25 10:27:16;;;;;;;;;;;;;;;16.25;79.16;101547.22;5093108;28;19977;-35
2022/09/25 10:29:42;;;;;;;;;;;;;;;15.98;77.48;101547.97;5092589;28;19924;-35
2022/09/25 10:32:10;;;;;;;;;;;;;;;15.75;75.74;101550.84;5096289;28;19924;-36
2022/09/25 10:34:35;;;;;;;;;;;;;;;15.61;76.77;101550.31;5097272;28;19955;-35
2022/09/25 10:37:11;;;;;;;;;;;;;;;15.67;75.87;101549.38;5096851;28;20398;-35
2022/09/25 10:39:39;;;;;;;;;;;;;;;15.85;77.10;101540.94;5096981;28;19964;-35
2022/09/25 10:42:24;;;;;;;;;;;;;;;16.07;76.25;101537.44;5096684;28;19916;-35
2022/09/25 10:44:51;;;;;;;;;;;;;;;16.31;77.79;101538.06;5096137;28;20023;-35
2022/09/25 10:50:11;;;;;;;;;;;;;;;16.50;70.17;101550.34;5096216;28;19923;-35
2022/09/25 10:52:48;;;;;;;;;;;;;;;16.42;72.14;101545.31;5096268;28;19920;-36
2022/09/25 10:55:24;;;;;;;;;;;;;;;16.25;73.03;101544.50;5096751;28;19916;-35
2022/09/25 10:57:54;;;;;;;;;;;;;;;16.34;73.03;101545.72;5096240;28;19923;-35
2022/09/25 11:00:21;;;;;;;;;;;;;;;16.39;69.22;101530.25;5096565;28;19981;-35
2022/09/25 11:02:52;;;;;;;;;;;;;;;16.50;69.99;101535.84;5096318;28;20257;-36
2022/09/25 11:05:18;;;;;;;;;;;;;;;16.66;70.21;101527.59;5095818;28;20002;-35
2022/09/25 11:07:53;;;;;;;;;;;;;;;16.79;69.40;101534.59;5096015;28;19923;-35
2022/09/25 11:10:20;;;;;;;;;;;;;;;16.65;66.01;101534.13;5095956;28;20011;-41
2022/09/25 11:12:46;;;;;;;;;;;;;;;16.42;70.60;101535.22;5096171;28;19916;-35
2022/09/25 11:15:16;;;;;;;;;;;;;;;16.16;66.18;101531.31;5095857;28;19927;-35
2022/09/25 11:17:42;;;;;;;;;;;;;;;16.18;71.55;101528.31;5095388;28;19954;-35
2022/09/25 11:20:18;;;;;;;;;;;;;;;16.43;72.60;101525.09;5095553;28;20001;-36
2022/09/25 11:23:07;;;;;;;;;;;;;;;16.64;67.84;101518.84;5095970;28;20302;-35
2022/09/25 11:25:32;;;;;;;;;;;;;;;16.82;67.42;101530.53;5033216;28;19961;-36
2022/09/25 11:28:17;;;;;;;;;;;;;;;16.91;66.23;101531.72;5033355;28;20393;-36
2022/09/25 11:30:50;;;;;;;;;;;;;;;16.76;67.32;101532.38;5033064;28;19964;-36
2022/09/25 11:33:20;;;;;;;;;;;;;;;16.65;64.73;101522.41;5033877;28;20269;-35
2022/09/25 11:35:45;;;;;;;;;;;;;;;16.77;64.70;101520.38;5033074;28;20002;-35
2022/09/25 11:41:21;;;;;;;;;;;;;;;17.11;65.38;101515.53;5033012;28;19951;-36
2022/09/25 11:43:53;;;;;;;;;;;;;;;17.05;65.19;101513.03;5032277;28;19925;-35
2022/09/25 11:46:18;;;;;;;;;;;;;;;17.18;65.58;101512.63;5033528;28;19917;-35
2022/09/25 11:49:09;;;;;;;;;;;;;;;17.07;64.76;101514.41;5033129;28;19924;-35
2022/09/25 11:51:52;;;;;;;;;;;;;;;16.88;65.04;101510.38;5032934;28;20356;-35
2022/09/25 11:54:29;;;;;;;;;;;;;;;16.84;66.75;101503.78;5033076;28;19923;-35
2022/09/25 11:57:12;;;;;;;;;;;;;;;17.02;66.40;101502.59;5032741;28;19967;-35
2022/09/25 11:59:49;;;;;;;;;;;;;;;17.33;63.94;101492.78;5033263;28;19961;-35
2022/09/25 12:02:23;;;;;;;;;;;;;;;17.41;63.64;101495.03;5056355;28;20440;-35
2022/09/25 12:04:48;;;;;;;;;;;;;;;17.18;58.23;101486.09;5095182;28;20383;-35
2022/09/25 12:07:13;;;;;;;;;;;;;;;17.09;60.45;101482.19;5095397;28;19960;-35
2022/09/25 12:09:41;;;;;;;;;;;;;;;16.86;63.31;101486.06;5094783;28;19938;-35
2022/09/25 12:12:09;;;;;;;;;;;;;;;16.66;60.97;101491.28;5094728;28;19941;-35
2022/09/25 12:14:47;;;;;;;;;;;;;;;16.51;63.61;101494.66;5094417;28;20019;-35
2022/09/25 12:17:12;;;;;;;;;;;;;;;16.38;65.60;101489.56;5095046;28;19917;-35
2022/09/25 12:19:44;;;;;;;;;;;;;;;16.33;66.86;101486.78;5094638;28;19916;-35
2022/09/25 12:22:38;;;;;;;;;;;;;;;16.32;64.72;101480.50;5095322;28;19970;-35
2022/09/25 12:25:24;;;;;;;;;;;;;;;16.59;66.65;101486.00;5032079;28;20012;-35
2022/09/25 12:27:57;;;;;;;;;;;;;;;16.67;65.98;101488.28;5031539;28;19959;-36
2022/09/25 12:30:25;;;;;;;;;;;;;;;16.66;66.66;101494.00;5032641;28;20163;-35
2022/09/25 12:32:53;;;;;;;;;;;;;;;16.64;67.10;101483.34;5032392;28;19948;-35
2022/09/25 12:35:37;;;;;;;;;;;;;;;16.56;68.37;101486.50;5031967;28;19956;-35
2022/09/25 12:38:09;;;;;;;;;;;;;;;16.40;68.09;101480.06;5031812;28;19928;-35
2022/09/25 12:40:42;;;;;;;;;;;;;;;16.20;66.89;101477.91;5031696;28;19917;-35
2022/09/25 12:43:10;;;;;;;;;;;;;;;16.13;68.44;101477.25;5015367;28;19917;-35
2022/09/25 12:45:36;;;;;;;;;;;;;;;16.03;68.40;101466.19;5031689;28;19951;-35
2022/09/25 12:48:11;;;;;;;;;;;;;;;15.93;69.30;101463.31;5032335;28;19918;-35
2022/09/25 12:50:46;;;;;;;;;;;;;;;15.87;70.16;101467.06;5031453;28;19921;-35
2022/09/25 12:53:14;;;;;;;;;;;;;;;15.83;70.29;101464.00;5031651;28;19918;-35
2022/09/25 12:55:44;;;;;;;;;;;;;;;15.85;69.20;101453.66;5031220;28;20069;-35
2022/09/25 12:58:20;;;;;;;;;;;;;;;15.99;69.22;101458.75;5031694;28;19924;-35
2022/09/25 13:00:48;;;;;;;;;;;;;;;16.14;66.60;101448.03;5044851;28;20443;-35
2022/09/25 13:03:18;;;;;;;;;;;;;;;16.31;66.79;101442.53;5093497;28;20368;-35
2022/09/25 13:05:48;;;;;;;;;;;;;;;16.52;67.57;101447.16;5094143;28;19942;-35
2022/09/25 13:08:23;;;;;;;;;;;;;;;16.79;68.66;101443.63;5094288;28;19973;-34